Time;durP1;ratioP1;P1;durP2;ratioP2;P2;SDS_P1;SDS_P2;PMS_P1;PMS_P2;Temp;Humidity;BMP_temperature;BMP_pressure;BME280_temperature;BME280_humidity;BME280_pressure;Samples;Min_cycle;Max_cycle;Signal;HPM_P1;HPM_P2
2024/04/17 00:01:45;;;;;;;4.60;0.82;;;;;;;3.29;52.78;100867.47;5400502;26;20007;-72
2024/04/17 00:04:11;;;;;;;4.30;0.30;;;;;;;3.29;52.75;100865.75;5399071;26;20062;-72
2024/04/17 00:06:37;;;;;;;5.00;0.57;;;;;;;3.32;52.25;100867.44;5400419;26;20071;-73
2024/04/17 00:09:02;;;;;;;4.13;0.50;;;;;;;3.24;52.65;100866.63;5380659;26;20003;-73
2024/04/17 00:11:28;;;;;;;3.83;0.40;;;;;;;3.24;52.69;100866.63;5360965;26;20000;-68
2024/04/17 00:13:53;;;;;;;1.80;0.47;;;;;;;3.16;52.60;100869.28;5344804;26;20486;-71
2024/04/17 00:16:19;;;;;;;2.63;0.82;;;;;;;3.11;52.81;100868.47;5342823;26;20136;-72
2024/04/17 00:18:44;;;;;;;6.47;0.95;;;;;;;3.06;52.92;100867.66;5350488;25;20007;-74
2024/04/17 00:21:10;;;;;;;3.70;0.73;;;;;;;2.97;53.35;100863.41;5369571;26;20005;-72
2024/04/17 00:23:35;;;;;;;4.68;0.45;;;;;;;2.92;53.48;100855.72;5364746;26;20052;-73
2024/04/17 00:26:00;;;;;;;3.03;0.65;;;;;;;2.94;53.27;100860.88;5365531;26;20810;-73
2024/04/17 00:28:26;;;;;;;2.13;0.40;;;;;;;2.94;53.19;100858.28;5335023;26;20749;-71
2024/04/17 00:30:51;;;;;;;3.50;0.40;;;;;;;2.89;53.41;100860.03;5368953;26;19999;-71
2024/04/17 00:33:17;;;;;;;3.45;0.30;;;;;;;2.87;53.69;100860.06;5358033;26;20039;-72
2024/04/17 00:35:42;;;;;;;2.50;0.30;;;;;;;2.87;53.68;100856.63;5360399;26;20859;-72
2024/04/17 00:38:08;;;;;;;3.53;0.30;;;;;;;2.82;53.85;100858.38;5371364;26;19998;-72
2024/04/17 00:40:35;;;;;;;2.83;0.20;;;;;;;2.83;53.59;100849.78;5395378;26;20481;-71
2024/04/17 00:43:01;;;;;;;6.43;0.45;;;;;;;2.82;53.67;100854.06;5392305;26;20009;-71
2024/04/17 00:45:39;;;;;;;7.35;0.28;;;;;;;2.82;53.52;100854.06;5395215;26;20002;-71
2024/04/17 00:48:08;;;;;;;1.48;0.20;;;;;;;2.76;53.67;100855.00;5361740;26;20006;-71
2024/04/17 00:50:34;;;;;;;2.80;0.15;;;;;;;2.76;53.40;100857.56;5424732;26;19995;-71
2024/04/17 00:53:00;;;;;;;1.27;0.30;;;;;;;2.75;53.54;100850.69;5399955;25;19999;-72
2024/04/17 00:55:26;;;;;;;4.88;0.15;;;;;;;2.68;53.64;100851.59;5384916;26;20368;-70
2024/04/17 00:57:52;;;;;;;9.77;0.40;;;;;;;2.62;54.22;100850.78;5393170;26;20007;-71
2024/04/17 01:00:18;;;;;;;4.07;0.47;;;;;;;2.64;53.58;100849.91;5401371;26;20011;-72
2024/04/17 01:02:43;;;;;;;1.38;0.20;;;;;;;2.59;53.61;100856.84;5399084;26;20002;-71
2024/04/17 01:05:09;;;;;;;2.20;0.20;;;;;;;2.52;53.70;100842.28;5389345;26;20043;-71
2024/04/17 01:07:36;;;;;;;4.40;0.17;;;;;;;2.43;54.06;100839.75;5392378;26;20040;-71
2024/04/17 01:10:01;;;;;;;2.85;0.28;;;;;;;2.32;53.82;100840.66;5394000;26;20006;-72
2024/04/17 01:12:27;;;;;;;1.60;0.30;;;;;;;2.32;54.14;100843.25;5400997;26;20354;-71
2024/04/17 01:14:52;;;;;;;3.20;0.30;;;;;;;2.33;54.09;100842.41;5370473;26;20014;-71
2024/04/17 01:17:18;;;;;;;3.38;0.20;;;;;;;2.37;54.30;100842.38;5393654;26;20684;-71
2024/04/17 01:19:44;;;;;;;3.67;0.63;;;;;;;2.31;54.24;100846.72;5398070;26;20006;-72
2024/04/17 01:22:09;;;;;;;3.50;0.80;;;;;;;2.39;54.52;100840.63;5398578;26;23209;-72
2024/04/17 01:24:35;;;;;;;3.03;0.50;;;;;;;2.38;54.98;100844.06;5394855;26;20003;-72
2024/04/17 01:27:00;;;;;;;3.65;0.30;;;;;;;2.41;54.93;100846.66;5371310;26;20010;-71
2024/04/17 01:29:26;;;;;;;5.20;0.25;;;;;;;2.39;54.93;100827.75;5386469;25;20025;-70
2024/04/17 01:31:51;;;;;;;2.63;0.43;;;;;;;2.36;55.01;100841.53;5403194;26;20000;-72
2024/04/17 01:34:18;;;;;;;7.07;0.63;;;;;;;2.32;54.90;100837.25;5391942;26;20037;-69
2024/04/17 01:36:43;;;;;;;3.22;0.30;;;;;;;2.35;54.61;100842.38;5395028;26;20038;-72
2024/04/17 01:39:09;;;;;;;2.85;0.28;;;;;;;2.23;54.69;100833.00;5401975;26;20655;-71
2024/04/17 01:41:34;;;;;;;1.83;0.60;;;;;;;2.18;55.01;100837.31;5384409;26;20932;-72
2024/04/17 01:44:00;;;;;;;10.55;0.95;;;;;;;2.22;54.50;100846.75;5394725;26;19995;-67
2024/04/17 01:46:25;;;;;;;4.45;0.60;;;;;;;2.16;55.24;100844.22;5361780;26;20002;-68
2024/04/17 01:48:51;;;;;;;9.13;0.80;;;;;;;2.14;55.03;100853.69;5393490;26;20477;-68
2024/04/17 01:51:16;;;;;;;6.03;0.40;;;;;;;2.13;54.93;100849.38;5397903;26;20021;-70
2024/04/17 01:53:42;;;;;;;1.27;0.43;;;;;;;2.09;54.83;100848.53;5377490;26;20002;-70
2024/04/17 01:56:07;;;;;;;4.90;0.32;;;;;;;2.06;55.18;100840.81;5400781;26;21762;-71
2024/04/17 01:58:32;;;;;;;6.55;0.70;;;;;;;2.07;55.26;100847.69;5361617;26;20091;-70
2024/04/17 02:01:04;;;;;;;4.00;0.52;;;;;;;2.05;55.11;100846.00;5381482;26;20006;-70
2024/04/17 02:03:29;;;;;;;5.77;0.53;;;;;;;2.02;55.22;100848.56;5393243;26;20004;-70
2024/04/17 02:05:55;;;;;;;5.22;1.08;;;;;;;1.91;55.75;100844.34;5397483;26;20473;-70
2024/04/17 02:08:20;;;;;;;2.35;0.40;;;;;;;1.97;55.34;100834.84;5382080;26;20017;-70
2024/04/17 02:10:46;;;;;;;4.55;0.35;;;;;;;2.12;55.09;100847.66;5345427;26;20453;-69
2024/04/17 02:13:11;;;;;;;2.42;0.43;;;;;;;1.94;55.15;100846.88;5366374;26;20139;-70
2024/04/17 02:15:36;;;;;;;3.70;0.30;;;;;;;1.83;54.99;100840.94;5385704;26;21409;-72
2024/04/17 02:18:02;;;;;;;2.72;0.43;;;;;;;1.85;55.28;100844.34;5391256;26;20002;-72
2024/04/17 02:20:27;;;;;;;4.78;0.63;;;;;;;1.87;55.16;100850.38;5397822;26;20011;-71
2024/04/17 02:22:53;;;;;;;4.93;0.47;;;;;;;1.69;55.26;100848.72;5393014;26;20005;-72
2024/04/17 02:25:18;;;;;;;9.15;0.30;;;;;;;1.64;55.33;100853.03;5349184;26;20025;-71
2024/04/17 02:27:44;;;;;;;7.07;0.40;;;;;;;1.51;55.72;100844.47;5354245;26;19997;-71
2024/04/17 02:30:10;;;;;;;2.83;0.30;;;;;;;1.44;55.58;100845.38;5336105;26;20000;-72
2024/04/17 02:32:35;;;;;;;1.63;0.30;;;;;;;1.39;55.72;100846.19;5386530;26;19995;-71
2024/04/17 02:35:01;;;;;;;5.97;0.65;;;;;;;1.36;56.00;100846.22;5374515;26;20084;-73
2024/04/17 02:37:26;;;;;;;4.50;0.32;;;;;;;1.41;55.99;100850.50;5358468;26;20011;-71
2024/04/17 02:39:51;;;;;;;3.25;0.40;;;;;;;1.51;55.70;100849.63;5367865;26;20089;-73
2024/04/17 02:42:17;;;;;;;2.40;0.40;;;;;;;1.63;55.64;100847.88;5359382;26;20000;-71
2024/04/17 02:44:42;;;;;;;2.88;0.52;;;;;;;1.58;55.42;100849.63;5342624;26;20007;-72
2024/04/17 02:47:08;;;;;;;2.22;0.25;;;;;;;1.62;55.75;100859.06;5356138;26;21821;-71
2024/04/17 02:49:33;;;;;;;9.68;0.55;;;;;;;1.64;55.71;100849.56;5356802;26;20039;-70
2024/04/17 02:51:58;;;;;;;1.23;0.10;;;;;;;1.73;55.71;100841.84;5367080;26;20440;-70
2024/04/17 02:54:24;;;;;;;2.90;0.30;;;;;;;1.77;55.46;100850.41;5363577;26;20003;-70
2024/04/17 02:56:49;;;;;;;2.28;0.28;;;;;;;1.87;55.34;100846.94;5355180;26;20013;-69
2024/04/17 02:59:15;;;;;;;1.90;0.38;;;;;;;1.91;55.21;100851.22;5319898;26;20115;-70
2024/04/17 03:01:40;;;;;;;3.35;0.50;;;;;;;2.04;55.35;100847.72;5356595;26;20081;-70
2024/04/17 03:04:05;;;;;;;5.03;0.52;;;;;;;1.91;54.83;100846.91;5367194;26;20395;-70
2024/04/17 03:06:33;;;;;;;4.55;0.52;;;;;;;1.86;54.98;100847.78;5354261;26;20003;-70
2024/04/17 03:08:58;;;;;;;1.77;0.47;;;;;;;1.82;55.05;100857.25;5373281;26;20005;-70
2024/04/17 03:11:24;;;;;;;7.15;0.60;;;;;;;1.80;54.98;100853.84;5376567;26;20354;-72
2024/04/17 03:13:50;;;;;;;3.33;1.05;;;;;;;1.85;55.27;100853.81;5388547;26;20002;-72
2024/04/17 03:16:16;;;;;;;3.70;0.63;;;;;;;1.91;55.01;100851.22;5394340;26;20019;-73
2024/04/17 03:18:41;;;;;;;2.40;0.50;;;;;;;1.88;54.97;100857.22;5398119;26;20827;-71
2024/04/17 03:21:06;;;;;;;3.05;0.93;;;;;;;1.86;55.30;100864.13;5388535;26;23729;-72
2024/04/17 03:23:32;;;;;;;2.45;0.47;;;;;;;1.91;55.20;100866.69;5398000;25;20003;-72
2024/04/17 03:26:00;;;;;;;2.00;0.70;;;;;;;1.91;55.10;100864.97;5405684;26;20047;-74
2024/04/17 03:28:26;;;;;;;4.40;1.10;;;;;;;1.97;55.28;100861.47;5374570;25;20018;-74
2024/04/17 03:30:51;;;;;;;2.67;0.20;;;;;;;1.92;55.24;100861.50;5365237;26;20003;-72
2024/04/17 03:33:17;;;;;;;2.38;0.38;;;;;;;1.86;54.93;100861.56;5366906;26;21944;-72
2024/04/17 03:35:53;;;;;;;2.72;0.40;;;;;;;1.88;55.24;100852.06;5394533;26;20021;-73
2024/04/17 03:38:18;;;;;;;2.03;0.50;;;;;;;1.87;55.04;100858.09;5372727;26;20004;-71
2024/04/17 03:40:44;;;;;;;6.30;0.50;;;;;;;1.86;55.13;100855.50;5358232;26;20800;-71
2024/04/17 03:43:09;;;;;;;2.28;0.52;;;;;;;1.86;55.08;100860.66;5362626;26;20319;-71
2024/04/17 03:45:34;;;;;;;5.85;1.60;;;;;;;1.74;55.16;100856.44;5350767;26;20024;-71
2024/04/17 03:48:00;;;;;;;4.63;0.70;;;;;;;1.81;55.17;100860.69;5360017;26;20004;-72
2024/04/17 03:50:25;;;;;;;7.07;0.55;;;;;;;1.89;55.34;100866.69;5341274;26;20004;-73
2024/04/17 03:52:51;;;;;;;1.35;0.50;;;;;;;1.84;55.22;100852.97;5363885;26;20031;-73
2024/04/17 03:55:16;;;;;;;2.20;0.73;;;;;;;1.83;55.54;100858.97;5402852;26;20021;-71
2024/04/17 03:57:41;;;;;;;2.05;0.60;;;;;;;1.73;55.21;100857.31;5381618;25;20010;-73
2024/04/17 04:00:07;;;;;;;6.18;0.93;;;;;;;1.65;55.58;100865.03;5386394;26;20066;-72
2024/04/17 04:02:33;;;;;;;4.53;1.20;;;;;;;1.62;55.84;100867.63;5388844;26;20056;-73
2024/04/17 04:04:59;;;;;;;5.00;1.77;;;;;;;1.71;55.52;100874.50;5390742;26;20067;-71
2024/04/17 04:07:25;;;;;;;5.40;1.13;;;;;;;1.82;55.62;100877.88;5390434;26;20034;-70
2024/04/17 04:09:50;;;;;;;6.75;1.05;;;;;;;1.80;55.18;100871.88;5389868;26;20006;-72
2024/04/17 04:12:16;;;;;;;5.30;1.50;;;;;;;1.83;55.63;100876.16;5401097;26;19994;-73
2024/04/17 04:14:41;;;;;;;5.13;1.23;;;;;;;1.88;55.43;100877.84;5359755;26;20011;-73
2024/04/17 04:17:07;;;;;;;3.00;0.95;;;;;;;1.89;55.35;100879.56;5391691;26;19999;-71
2024/04/17 04:19:32;;;;;;;6.78;0.95;;;;;;;1.87;55.46;100877.88;5393274;26;20341;-73
2024/04/17 04:21:58;;;;;;;5.00;1.15;;;;;;;1.92;55.22;100876.13;5391582;26;20154;-73
2024/04/17 04:24:23;;;;;;;6.03;0.90;;;;;;;2.01;55.59;100872.66;5398061;26;20065;-71
2024/04/17 04:26:51;;;;;;;4.72;0.70;;;;;;;1.96;55.47;100879.56;5385562;26;19998;-72
2024/04/17 04:29:17;;;;;;;6.82;1.00;;;;;;;2.11;55.46;100885.50;5392938;26;20296;-71
2024/04/17 04:31:42;;;;;;;3.35;0.55;;;;;;;2.16;55.43;100888.06;5367709;26;20444;-71
2024/04/17 04:34:07;;;;;;;8.32;0.73;;;;;;;2.14;55.30;100885.47;5392154;25;21152;-69
2024/04/17 04:36:33;;;;;;;0.90;0.30;;;;;;;2.20;55.30;100887.19;5389968;26;20003;-72
2024/04/17 04:38:58;;;;;;;4.97;0.47;;;;;;;2.31;55.57;100881.94;5391542;26;20017;-71
2024/04/17 04:41:24;;;;;;;5.60;0.40;;;;;;;2.35;55.49;100888.78;5396084;26;20003;-69
2024/04/17 04:43:49;;;;;;;3.42;0.55;;;;;;;2.50;55.12;100888.72;5424278;26;19995;-69
2024/04/17 04:46:15;;;;;;;3.08;0.35;;;;;;;2.64;55.52;100890.34;5400423;26;20753;-69
2024/04/17 04:48:41;;;;;;;1.75;0.30;;;;;;;2.72;55.21;100881.69;5386562;26;20006;-73
2024/04/17 04:51:06;;;;;;;1.48;0.32;;;;;;;2.80;55.24;100898.84;5398088;26;20627;-74
2024/04/17 04:53:32;;;;;;;7.60;0.70;;;;;;;2.49;55.97;100902.50;5402969;26;20013;-73
2024/04/17 04:55:59;;;;;;;5.25;0.70;;;;;;;2.21;57.29;100899.19;5418002;26;20011;-73
2024/04/17 04:58:25;;;;;;;3.97;0.55;;;;;;;2.61;56.58;100898.13;5395459;26;20002;-71
2024/04/17 05:00:51;;;;;;;2.38;0.30;;;;;;;2.63;55.62;100904.97;5391515;26;20555;-73
2024/04/17 05:03:17;;;;;;;0.90;0.17;;;;;;;2.25;52.41;100903.47;5383086;26;20018;-71
2024/04/17 05:05:44;;;;;;;0.82;0.10;;;;;;;2.74;50.18;100908.34;5350561;26;20008;-74
2024/04/17 05:08:09;;;;;;;0.77;0.10;;;;;;;2.86;50.54;100907.38;5361584;26;20023;-67
2024/04/17 05:10:34;;;;;;;0.52;0.10;;;;;;;3.08;50.41;100907.25;5318975;26;19995;-68
2024/04/17 05:13:00;;;;;;;2.15;0.63;;;;;;;2.86;50.28;100904.81;5387547;26;20353;-68
2024/04/17 05:15:25;;;;;;;3.90;0.20;;;;;;;2.65;51.81;100905.81;5365064;26;20045;-68
2024/04/17 05:17:51;;;;;;;0.28;0.20;;;;;;;2.81;52.11;100916.06;5359309;26;20761;-69
2024/04/17 05:20:16;;;;;;;1.13;0.13;;;;;;;2.87;50.56;100921.19;5407656;26;20033;-70
2024/04/17 05:22:42;;;;;;;0.32;0.13;;;;;;;3.38;50.33;100931.97;5387906;25;20355;-69
2024/04/17 05:25:07;;;;;;;0.75;0.10;;;;;;;3.29;49.77;100932.94;5398384;26;20948;-69
2024/04/17 05:27:33;;;;;;;4.43;0.10;;;;;;;3.15;50.88;100932.97;5383779;26;20405;-70
2024/04/17 05:29:58;;;;;;;0.88;0.28;;;;;;;2.77;52.51;100934.13;5372318;26;20468;-70
2024/04/17 05:32:27;;;;;;;3.78;0.10;;;;;;;2.54;52.80;100936.84;5392009;26;20010;-70
2024/04/17 05:34:52;;;;;;;3.70;0.17;;;;;;;2.45;53.90;100947.22;5376632;26;20011;-74
2024/04/17 05:37:18;;;;;;;0.25;0.03;;;;;;;2.46;54.21;100948.06;5392835;26;20024;-75
2024/04/17 05:39:43;;;;;;;1.80;0.20;;;;;;;2.77;54.71;100943.59;5352243;26;20015;-75
2024/04/17 05:42:10;;;;;;;0.82;0.20;;;;;;;2.86;54.44;100942.69;5369468;26;20839;-71
2024/04/17 05:44:37;;;;;;;5.68;0.20;;;;;;;3.07;54.14;100942.53;5419658;26;19998;-72
2024/04/17 05:47:04;;;;;;;0.80;0.15;;;;;;;3.24;54.29;100938.94;5380072;26;20029;-72
2024/04/17 05:49:31;;;;;;;0.40;0.20;;;;;;;3.34;54.24;100931.16;5399270;26;20008;-73
2024/04/17 05:51:57;;;;;;;0.88;0.20;;;;;;;3.45;54.23;100932.75;5396634;26;20002;-71
2024/04/17 05:54:23;;;;;;;1.17;0.10;;;;;;;3.53;53.90;100923.22;5404193;26;20030;-73
2024/04/17 05:56:49;;;;;;;1.80;0.10;;;;;;;3.75;54.04;100921.28;5382649;26;20778;-76
2024/04/17 05:59:15;;;;;;;1.98;0.20;;;;;;;3.74;53.83;100922.16;5402486;26;20010;-77
2024/04/17 06:01:41;;;;;;;0.40;0.10;;;;;;;3.86;54.16;100918.56;5366339;26;20702;-70
2024/04/17 06:04:06;;;;;;;0.57;0.10;;;;;;;4.06;53.96;100918.34;5392303;26;20002;-76
2024/04/17 06:06:32;;;;;;;3.97;0.52;;;;;;;4.10;54.09;100923.47;5400225;26;20088;-74
2024/04/17 06:08:57;;;;;;;2.45;0.22;;;;;;;4.05;53.95;100919.19;5370019;26;20084;-71
2024/04/17 06:11:23;;;;;;;1.10;0.20;;;;;;;3.99;54.06;100926.16;5372438;26;20080;-71
2024/04/17 06:13:49;;;;;;;4.13;0.60;;;;;;;4.14;54.03;100924.25;5358746;26;20712;-71
2024/04/17 06:16:15;;;;;;;2.10;1.00;;;;;;;4.33;54.26;100924.88;5427913;26;20019;-73
2024/04/17 06:18:43;;;;;;;1.08;0.22;;;;;;;4.40;54.04;100932.53;5417221;26;20018;-73
2024/04/17 06:21:08;;;;;;;2.70;0.50;;;;;;;4.54;53.48;100929.78;5394824;26;21376;-70
2024/04/17 06:23:33;;;;;;;0.70;0.10;;;;;;;4.74;52.65;100926.88;5393288;26;20011;-77
2024/04/17 06:25:59;;;;;;;0.93;0.20;;;;;;;4.88;52.98;100929.31;5390250;26;20374;-71
2024/04/17 06:28:25;;;;;;;1.00;0.35;;;;;;;5.10;52.56;100929.84;5397971;26;20016;-71
2024/04/17 06:30:51;;;;;;;2.67;0.40;;;;;;;5.18;51.52;100938.31;5388895;26;22620;-72
2024/04/17 06:33:17;;;;;;;0.10;0.00;;;;;;;5.14;51.25;100926.28;5380475;25;20004;-71
2024/04/17 06:35:42;;;;;;;1.58;0.10;;;;;;;5.14;51.55;100934.06;5315876;26;19999;-71
2024/04/17 06:38:08;;;;;;;1.38;0.10;;;;;;;5.13;51.42;100931.53;5355987;26;20361;-71
2024/04/17 06:40:34;;;;;;;0.35;0.00;;;;;;;4.90;51.20;100932.75;5332453;26;20749;-71
2024/04/17 06:42:59;;;;;;;1.15;0.20;;;;;;;5.05;50.74;100934.22;5361586;26;20175;-69
2024/04/17 06:45:25;;;;;;;1.67;0.10;;;;;;;5.20;50.45;100933.13;5369034;26;20012;-70
2024/04/17 06:47:51;;;;;;;0.90;0.20;;;;;;;5.53;50.34;100929.09;5354297;26;19998;-70
2024/04/17 06:50:16;;;;;;;0.60;0.15;;;;;;;5.75;50.13;100944.25;5396602;26;20010;-69
2024/04/17 06:52:42;;;;;;;5.88;0.10;;;;;;;5.91;49.47;100935.31;5393942;26;20590;-68
2024/04/17 06:55:07;;;;;;;2.28;0.10;;;;;;;6.01;49.06;100936.81;5403433;26;21361;-70
2024/04/17 06:57:33;;;;;;;3.83;0.13;;;;;;;6.10;49.44;100940.97;5403554;26;20012;-69
2024/04/17 06:59:58;;;;;;;4.38;0.28;;;;;;;6.11;49.14;100937.50;5352027;26;20000;-69
2024/04/17 07:02:25;;;;;;;1.60;0.10;;;;;;;6.42;48.90;100945.53;5379611;26;20000;-69
2024/04/17 07:04:51;;;;;;;5.68;0.47;;;;;;;6.74;48.19;100943.97;5355505;26;20018;-69
2024/04/17 07:07:16;;;;;;;2.55;0.10;;;;;;;6.61;46.66;100943.38;5366598;26;20586;-70
2024/04/17 07:09:42;;;;;;;1.10;0.10;;;;;;;6.45;46.65;100942.88;5360814;26;20197;-69
2024/04/17 07:12:09;;;;;;;1.65;0.10;;;;;;;6.63;46.50;100939.00;5365284;26;20012;-69
2024/04/17 07:14:35;;;;;;;1.30;0.10;;;;;;;6.57;46.86;100940.88;5366278;26;20035;-69
2024/04/17 07:17:00;;;;;;;1.27;0.20;;;;;;;6.99;47.92;100940.78;5348051;26;20050;-69
2024/04/17 07:19:26;;;;;;;0.52;0.00;;;;;;;7.47;45.92;100948.28;5341738;26;20416;-69
2024/04/17 07:21:53;;;;;;;1.65;0.10;;;;;;;7.59;44.24;100937.56;5357009;26;20004;-69
2024/04/17 07:24:18;;;;;;;0.70;0.13;;;;;;;8.15;45.00;100942.94;5368207;26;20003;-68
2024/04/17 07:26:44;;;;;;;0.30;0.10;;;;;;;7.87;43.79;100940.28;5387089;26;20018;-69
2024/04/17 07:29:10;;;;;;;0.30;0.10;;;;;;;7.30;44.69;100943.50;5396935;26;19999;-68
2024/04/17 07:31:35;;;;;;;3.53;0.43;;;;;;;6.84;45.62;100940.28;5399091;26;20086;-69
2024/04/17 07:34:01;;;;;;;0.40;0.00;;;;;;;6.67;47.04;100947.59;5384918;26;20087;-69
2024/04/17 07:36:26;;;;;;;1.20;0.20;;;;;;;5.88;48.71;100950.91;5376753;26;20021;-69
2024/04/17 07:38:52;;;;;;;1.65;0.20;;;;;;;5.98;48.34;100947.25;5389608;25;20045;-69
2024/04/17 07:41:17;;;;;;;0.40;0.10;;;;;;;6.00;48.74;100955.03;5395737;26;20460;-69
2024/04/17 07:43:43;;;;;;;0.82;0.20;;;;;;;6.04;49.17;100957.53;5384384;26;20017;-69
2024/04/17 07:46:09;;;;;;;1.25;0.10;;;;;;;6.30;49.07;100953.56;5391930;26;20006;-68
2024/04/17 07:48:34;;;;;;;0.75;0.10;;;;;;;6.34;49.08;100950.03;5379497;26;20010;-69
2024/04/17 07:51:00;;;;;;;2.13;0.10;;;;;;;6.41;49.03;100961.97;5382845;26;20008;-70
2024/04/17 07:53:25;;;;;;;0.88;0.45;;;;;;;6.11;49.90;100960.00;5379007;26;20018;-69
2024/04/17 07:55:51;;;;;;;2.33;0.20;;;;;;;5.70;51.10;100964.22;5388004;26;20010;-70
2024/04/17 07:58:16;;;;;;;0.80;0.10;;;;;;;5.54;51.42;100961.91;5384548;26;20537;-69
2024/04/17 08:00:42;;;;;;;2.83;0.25;;;;;;;5.22;51.29;100957.28;5389166;26;20003;-69
2024/04/17 08:03:11;;;;;;;0.88;0.00;;;;;;;5.23;51.63;100952.09;5387661;26;20683;-68
2024/04/17 08:05:36;;;;;;;0.40;0.10;;;;;;;5.17;51.32;100962.53;5390213;26;20530;-70
2024/04/17 08:08:02;;;;;;;0.20;0.10;;;;;;;5.65;51.84;100966.91;5385624;26;22803;-71
2024/04/17 08:10:27;;;;;;;1.73;0.10;;;;;;;4.97;51.31;100967.19;5393104;26;19991;-69
2024/04/17 08:13:04;;;;;;;0.68;0.10;;;;;;;5.17;51.05;100965.13;5358781;26;20003;-70
2024/04/17 08:15:29;;;;;;;0.17;0.00;;;;;;;5.01;51.28;100964.53;5358460;26;20028;-69
2024/04/17 08:17:55;;;;;;;2.22;0.08;;;;;;;5.16;50.43;100971.19;5348050;26;20621;-68
2024/04/17 08:20:21;;;;;;;0.90;0.00;;;;;;;4.79;51.31;100966.53;5352129;26;20067;-70
2024/04/17 08:22:46;;;;;;;2.25;0.00;;;;;;;4.66;52.48;100969.31;5355972;26;20000;-69
2024/04/17 08:25:12;;;;;;;0.75;0.10;;;;;;;4.68;53.03;100968.41;5389218;26;20038;-69
2024/04/17 08:27:37;;;;;;;0.55;0.10;;;;;;;4.93;53.11;100968.94;5391180;26;20044;-70
2024/04/17 08:30:03;;;;;;;0.38;0.17;;;;;;;5.13;52.34;100975.56;5375328;26;21155;-70
2024/04/17 08:32:28;;;;;;;1.55;0.00;;;;;;;5.03;52.63;100977.44;5401626;26;20021;-70
2024/04/17 08:34:55;;;;;;;0.40;0.10;;;;;;;4.74;52.32;100978.66;5357181;26;20003;-70
2024/04/17 08:37:21;;;;;;;2.08;0.10;;;;;;;5.10;52.77;100979.06;5355193;26;20000;-70
2024/04/17 08:39:47;;;;;;;0.68;0.30;;;;;;;5.47;52.51;100983.63;5388630;26;20003;-69
2024/04/17 08:42:19;;;;;;;1.08;0.10;;;;;;;5.43;51.30;100984.56;5391548;26;20585;-70
2024/04/17 08:44:45;;;;;;;3.60;0.85;;;;;;;5.60;50.63;100992.91;5394677;26;19999;-71
2024/04/17 08:47:13;;;;;;;0.68;0.20;;;;;;;5.85;51.13;100982.09;5348306;26;20459;-70
2024/04/17 08:49:40;;;;;;;0.50;0.00;;;;;;;5.91;49.53;100992.38;5401124;26;20045;-70
2024/04/17 08:52:07;;;;;;;0.80;0.00;;;;;;;6.07;48.73;100979.97;5377930;26;22423;-71
2024/04/17 08:54:33;;;;;;;1.98;0.10;;;;;;;6.25;49.89;100991.72;5399991;26;20447;-71
2024/04/17 08:56:58;;;;;;;0.52;0.10;;;;;;;6.52;49.70;100985.13;5381940;26;19995;-70
2024/04/17 08:59:25;;;;;;;2.47;0.75;;;;;;;6.37;49.32;100998.44;5397213;26;20006;-70
2024/04/17 09:01:52;;;;;;;0.30;0.10;;;;;;;6.43;49.19;100990.53;5395650;26;20392;-70
2024/04/17 09:04:18;;;;;;;0.63;0.10;;;;;;;6.03;49.11;100992.13;5421993;26;20007;-70
2024/04/17 09:06:44;;;;;;;1.67;0.10;;;;;;;5.99;49.43;100995.66;5376557;26;20659;-71
2024/04/17 09:09:12;;;;;;;0.73;0.15;;;;;;;6.03;50.30;100994.72;5361824;26;20004;-70
2024/04/17 09:11:40;;;;;;;1.15;0.10;;;;;;;5.96;49.87;100995.72;5360554;26;20012;-70
2024/04/17 09:14:05;;;;;;;0.80;0.25;;;;;;;6.01;48.56;100993.91;5346901;26;20072;-70
2024/04/17 09:16:31;;;;;;;0.43;0.10;;;;;;;5.82;50.29;100992.56;5336194;26;20004;-70
2024/04/17 09:18:57;;;;;;;2.10;0.45;;;;;;;5.54;50.51;100993.03;5344764;26;20341;-70
2024/04/17 09:21:23;;;;;;;0.38;0.00;;;;;;;5.52;51.50;100988.75;5353963;26;20085;-70
2024/04/17 09:23:48;;;;;;;0.20;0.10;;;;;;;5.97;50.43;100994.00;5364739;26;20447;-69
2024/04/17 09:26:16;;;;;;;0.20;0.03;;;;;;;6.27;50.52;100992.56;5313996;26;20007;-70
2024/04/17 09:28:41;;;;;;;1.15;0.00;;;;;;;6.00;51.28;100996.53;5356153;26;20043;-70
2024/04/17 09:31:09;;;;;;;4.18;0.13;;;;;;;6.12;51.08;100991.09;5348612;26;20528;-69
2024/04/17 09:33:37;;;;;;;3.13;0.20;;;;;;;6.19;50.07;100991.84;5357325;26;20388;-70
2024/04/17 09:36:03;;;;;;;1.15;0.00;;;;;;;6.81;50.49;100986.25;5343992;26;20094;-70
2024/04/17 09:38:29;;;;;;;1.85;0.38;;;;;;;7.57;48.65;100987.94;5353010;26;20003;-69
2024/04/17 09:40:55;;;;;;;5.30;0.10;;;;;;;7.47;47.30;100982.09;5348047;26;20007;-69
2024/04/17 09:43:26;;;;;;;0.00;0.00;;;;;;;7.50;47.79;100987.19;5369120;26;20224;-70
2024/04/17 09:46:00;;;;;;;0.50;0.00;;;;;;;7.17;48.10;100994.06;5382467;26;20366;-69
2024/04/17 09:48:30;;;;;;;1.65;0.00;;;;;;;7.11;47.01;100990.75;5389299;26;19999;-70
2024/04/17 09:51:01;;;;;;;2.15;0.10;;;;;;;7.46;47.24;100990.75;5382027;26;20003;-69
2024/04/17 09:53:31;;;;;;;0.20;0.05;;;;;;;7.19;47.05;100995.75;5373766;26;20003;-70
2024/04/17 09:55:58;;;;;;;2.30;0.00;;;;;;;7.29;46.93;100991.19;5334508;26;20081;-69
2024/04/17 09:58:32;;;;;;;2.28;0.10;;;;;;;7.71;46.52;100999.69;5346137;26;20459;-69
2024/04/17 10:01:06;;;;;;;0.90;0.00;;;;;;;7.83;45.26;100995.91;5348919;26;20044;-69
2024/04/17 10:03:33;;;;;;;0.08;0.00;;;;;;;7.68;45.47;100997.16;5367837;26;19995;-69
2024/04/17 10:05:59;;;;;;;4.40;0.55;;;;;;;7.89;44.93;101000.09;5380043;26;20524;-69
2024/04/17 10:08:30;;;;;;;4.13;0.22;;;;;;;7.93;43.45;100993.91;5361851;26;20949;-70
2024/04/17 10:10:56;;;;;;;2.65;0.30;;;;;;;8.29;44.17;100998.97;5349104;26;20688;-69
2024/04/17 10:13:23;;;;;;;3.72;0.50;;;;;;;8.70;42.40;100989.97;5351023;26;20027;-69
2024/04/17 10:15:49;;;;;;;4.95;0.30;;;;;;;9.14;41.46;100994.72;5352501;26;19999;-70
2024/04/17 10:18:15;;;;;;;2.47;0.22;;;;;;;9.26;41.65;100994.34;5346372;26;20011;-69
2024/04/17 10:20:42;;;;;;;3.47;0.10;;;;;;;9.14;41.49;100986.91;5355308;26;20500;-71
2024/04/17 10:23:09;;;;;;;2.80;0.50;;;;;;;9.05;39.58;100989.78;5348667;25;20010;-70
2024/04/17 10:25:57;;;;;;;1.73;0.20;;;;;;;9.11;41.07;100989.63;5352153;26;21259;-70
2024/04/17 10:28:24;;;;;;;1.10;0.10;;;;;;;8.44;42.19;100993.34;5365237;26;20022;-69
2024/04/17 10:30:52;;;;;;;2.60;0.10;;;;;;;8.14;42.09;100985.50;5373147;26;20317;-70
2024/04/17 10:33:18;;;;;;;4.38;0.20;;;;;;;8.15;42.11;100991.56;5346178;26;20015;-70
2024/04/17 10:35:51;;;;;;;2.30;0.40;;;;;;;8.15;41.49;100986.38;5358419;26;20000;-69
2024/04/17 10:38:16;;;;;;;5.30;0.20;;;;;;;8.20;40.63;100983.63;5339683;26;20014;-69
2024/04/17 10:40:42;;;;;;;4.60;0.20;;;;;;;8.43;41.27;100990.81;5379573;26;19998;-70
2024/04/17 10:43:11;;;;;;;2.17;0.10;;;;;;;8.46;41.00;100986.34;5361078;26;20019;-70
2024/04/17 10:45:40;;;;;;;2.78;0.45;;;;;;;8.45;41.17;100983.75;5344290;26;20015;-70
2024/04/17 10:48:14;;;;;;;1.75;0.10;;;;;;;8.40;41.10;100985.66;5342637;26;19998;-69
2024/04/17 10:50:39;;;;;;;2.47;0.55;;;;;;;8.86;40.51;100986.94;5384487;26;20800;-70
2024/04/17 10:53:06;;;;;;;3.35;0.65;;;;;;;8.61;40.48;100979.84;5380942;25;19998;-68
2024/04/17 10:55:32;;;;;;;3.60;0.20;;;;;;;8.82;40.09;100986.16;5394083;26;20492;-69
2024/04/17 10:57:58;;;;;;;2.97;0.32;;;;;;;9.02;39.46;100984.69;5387635;26;19999;-69
2024/04/17 11:00:24;;;;;;;4.43;0.35;;;;;;;9.36;39.69;100993.13;5393998;26;19998;-69
2024/04/17 11:02:49;;;;;;;10.23;0.43;;;;;;;9.34;39.46;100992.34;5389594;26;20009;-69
2024/04/17 11:05:16;;;;;;;2.70;0.28;;;;;;;10.10;38.90;100993.25;5382719;26;23008;-70
2024/04/17 11:07:41;;;;;;;5.35;0.30;;;;;;;10.27;37.42;100995.22;5382826;26;20018;-70
2024/04/17 11:10:11;;;;;;;6.20;0.30;;;;;;;10.41;37.42;100992.09;5345225;26;20322;-69
2024/04/17 11:12:37;;;;;;;6.60;2.03;;;;;;;10.00;37.47;100984.03;5347013;26;20014;-70
2024/04/17 11:15:05;;;;;;;1.70;0.10;;;;;;;9.67;38.51;100989.47;5345552;26;20014;-69
2024/04/17 11:17:31;;;;;;;3.95;0.30;;;;;;;9.06;38.56;100992.38;5360301;26;20008;-70
2024/04/17 11:19:58;;;;;;;4.68;0.20;;;;;;;9.28;39.82;100999.50;5393602;26;21388;-69
2024/04/17 11:22:24;;;;;;;3.28;0.75;;;;;;;9.26;39.12;101001.31;5356678;26;20015;-70
2024/04/17 11:24:57;;;;;;;3.90;0.77;;;;;;;8.96;38.38;101002.25;5405456;26;20020;-71
2024/04/17 11:27:22;;;;;;;3.45;0.52;;;;;;;8.89;39.35;100995.50;5369628;26;20007;-70
2024/04/17 11:29:48;;;;;;;8.32;0.73;;;;;;;8.65;39.80;101001.41;5396395;26;20035;-70